createdAt,value
2023-02-15T00:00:26.499Z,9.80
2023-02-15T00:02:54.788Z,10.10
2023-02-15T00:05:22.935Z,9.73
2023-02-15T00:07:51.130Z,10.50
2023-02-15T00:10:19.521Z,10.43
2023-02-15T00:12:47.697Z,10.13
2023-02-15T00:15:17.479Z,9.97
2023-02-15T00:17:45.645Z,10.80
2023-02-15T00:20:14.099Z,11.20
2023-02-15T00:22:42.680Z,9.40
2023-02-15T00:25:10.850Z,10.40
2023-02-15T00:27:39.013Z,10.37
2023-02-15T00:30:09.005Z,9.80
2023-02-15T00:32:38.763Z,10.43
2023-02-15T00:35:08.270Z,9.77
2023-02-15T00:37:36.511Z,10.43
2023-02-15T00:40:06.767Z,10.27
2023-02-15T00:42:35.074Z,10.43
2023-02-15T00:45:03.320Z,10.97
2023-02-15T00:47:31.484Z,10.27
2023-02-15T00:50:01.013Z,9.30
2023-02-15T00:52:29.222Z,10.23
2023-02-15T00:54:57.890Z,10.23
2023-02-15T00:57:26.151Z,9.77
2023-02-15T00:59:54.313Z,9.87
2023-02-15T01:02:47.517Z,9.37
2023-02-15T01:05:19.494Z,9.00
2023-02-15T01:07:52.525Z,9.30
2023-02-15T01:10:21.615Z,8.73
2023-02-15T01:12:50.067Z,10.13
2023-02-15T01:15:18.303Z,9.53
2023-02-15T01:17:53.049Z,9.23
2023-02-15T01:20:28.453Z,9.23
2023-02-15T01:22:57.596Z,9.07
2023-02-15T01:25:26.928Z,9.07
2023-02-15T01:27:57.035Z,8.50
2023-02-15T01:30:25.292Z,9.80
2023-02-15T01:32:53.749Z,9.03
2023-02-15T01:35:22.186Z,9.07
2023-02-15T01:37:51.776Z,8.93
2023-02-15T01:40:21.532Z,9.03
2023-02-15T01:42:53.632Z,8.97
2023-02-15T01:45:26.202Z,9.17
2023-02-15T01:48:00.195Z,9.47
2023-02-15T01:50:35.655Z,10.97
2023-02-15T01:53:11.203Z,12.47
2023-02-15T01:55:43.423Z,12.97
2023-02-15T01:58:12.176Z,12.07
2023-02-15T02:00:40.560Z,12.47
2023-02-15T02:03:09.079Z,12.10
2023-02-15T02:05:37.779Z,11.03
2023-02-15T02:08:09.479Z,10.33
2023-02-15T02:10:38.523Z,10.47
2023-02-15T02:13:08.694Z,10.57
2023-02-15T02:15:49.571Z,10.90
2023-02-15T02:18:38.499Z,11.40
2023-02-15T02:22:18.126Z,10.77
2023-02-15T02:25:21.138Z,9.30
2023-02-15T02:27:52.995Z,9.33
2023-02-15T02:31:03.837Z,10.47
2023-02-15T02:33:51.974Z,10.00
2023-02-15T02:36:29.368Z,9.87
2023-02-15T02:39:15.560Z,10.17
2023-02-15T02:41:55.698Z,10.37
2023-02-15T02:44:28.902Z,10.23
2023-02-15T02:47:02.094Z,9.67
2023-02-15T02:49:38.613Z,9.77
2023-02-15T02:52:29.279Z,10.60
2023-02-15T02:54:58.848Z,10.60
2023-02-15T02:57:31.289Z,10.37
2023-02-15T03:00:03.224Z,10.10
2023-02-15T03:02:37.354Z,10.80
2023-02-15T03:05:11.755Z,9.97
2023-02-15T03:08:10.641Z,10.03
2023-02-15T03:10:41.225Z,10.03
2023-02-15T03:13:10.956Z,9.83
2023-02-15T03:15:59.256Z,10.07
2023-02-15T03:18:34.069Z,10.20
2023-02-15T03:21:05.338Z,10.50
2023-02-15T03:23:36.854Z,11.10
2023-02-15T03:26:09.043Z,10.33
2023-02-15T03:28:44.678Z,10.17
2023-02-15T03:31:16.739Z,10.43
2023-02-15T03:33:52.076Z,10.50
2023-02-15T03:36:26.752Z,10.50
2023-02-15T03:39:04.301Z,10.60
2023-02-15T03:41:57.000Z,10.73
2023-02-15T03:44:30.226Z,10.83
2023-02-15T03:47:06.277Z,11.13
2023-02-15T03:49:44.274Z,10.57
2023-02-15T03:52:14.274Z,10.43
2023-02-15T03:54:49.702Z,9.93
2023-02-15T03:57:40.370Z,9.80
2023-02-15T04:00:34.489Z,11.10
2023-02-15T04:03:25.802Z,10.33
2023-02-15T04:05:54.050Z,11.10
2023-02-15T04:08:44.073Z,10.03
2023-02-15T04:11:11.305Z,9.87
2023-02-15T04:13:39.506Z,9.97
2023-02-15T04:16:07.968Z,10.70
2023-02-15T04:18:59.924Z,11.00
2023-02-15T04:21:47.854Z,10.60
2023-02-15T04:24:35.533Z,11.43
2023-02-15T04:27:05.646Z,10.87
2023-02-15T04:29:34.001Z,10.40
2023-02-15T04:32:03.599Z,10.30
2023-02-15T04:34:31.900Z,10.77
2023-02-15T04:37:00.139Z,10.30
2023-02-15T04:39:29.704Z,10.00
2023-02-15T04:41:57.905Z,10.30
2023-02-15T04:44:26.132Z,9.17
2023-02-15T04:46:54.314Z,10.20
2023-02-15T04:49:22.554Z,10.03
2023-02-15T04:51:51.186Z,10.90
2023-02-15T04:54:19.347Z,10.00
2023-02-15T04:56:48.835Z,9.60
2023-02-15T04:59:17.179Z,10.00
2023-02-15T05:01:47.248Z,10.00
2023-02-15T05:04:21.266Z,10.73
2023-02-15T05:06:54.483Z,10.00
2023-02-15T05:09:22.656Z,9.67
2023-02-15T05:11:52.384Z,9.10
2023-02-15T05:14:20.678Z,8.93
2023-02-15T05:16:48.979Z,8.93
2023-02-15T05:19:17.424Z,9.03
2023-02-15T05:21:45.572Z,9.33
2023-02-15T05:24:34.590Z,9.50
2023-02-15T05:27:21.605Z,8.77
2023-02-15T05:29:49.903Z,9.43
2023-02-15T05:32:18.288Z,8.80
2023-02-15T05:34:46.565Z,9.73
2023-02-15T05:37:14.771Z,9.60
2023-02-15T05:39:43.639Z,9.90
2023-02-15T05:42:13.193Z,8.97
2023-02-15T05:44:41.953Z,9.47
2023-02-15T05:47:10.185Z,9.23
2023-02-15T05:49:38.333Z,9.27
2023-02-15T05:52:06.836Z,9.30
2023-02-15T05:54:35.011Z,10.03
2023-02-15T05:57:03.244Z,9.93
2023-02-15T05:59:32.770Z,9.70
2023-02-15T06:02:01.046Z,9.80
2023-02-15T06:04:29.538Z,8.60
2023-02-15T06:06:57.676Z,8.97
2023-02-15T06:09:25.825Z,9.93
2023-02-15T06:11:54.026Z,8.33
2023-02-15T06:14:22.245Z,9.40
2023-02-15T06:16:51.849Z,9.43
2023-02-15T06:19:20.065Z,8.97
2023-02-15T06:21:48.485Z,10.20
2023-02-15T06:24:16.788Z,10.03
2023-02-15T06:26:44.985Z,10.37
2023-02-15T06:29:13.171Z,10.93
2023-02-15T06:31:41.461Z,9.13
2023-02-15T06:34:11.078Z,10.17
2023-02-15T06:36:39.216Z,9.67
2023-02-15T06:39:07.506Z,10.47
2023-02-15T06:41:35.700Z,10.20
2023-02-15T06:44:03.929Z,9.37
2023-02-15T06:46:32.093Z,9.60
2023-02-15T06:49:00.310Z,8.43
2023-02-15T06:51:29.881Z,8.90
2023-02-15T06:53:58.474Z,9.60
2023-02-15T06:56:27.058Z,8.17
2023-02-15T06:58:55.388Z,9.23
2023-02-15T07:01:23.637Z,9.27
2023-02-15T07:03:55.385Z,9.17
2023-02-15T07:06:36.256Z,8.67
2023-02-15T07:09:05.234Z,8.83
2023-02-15T07:11:51.051Z,8.90
2023-02-15T07:14:19.335Z,8.70
2023-02-15T07:16:47.532Z,9.63
2023-02-15T07:19:15.804Z,8.07
2023-02-15T07:21:46.548Z,8.73
2023-02-15T07:24:14.888Z,9.83
2023-02-15T07:26:43.144Z,9.67
2023-02-15T07:29:11.369Z,9.63
2023-02-15T07:31:39.547Z,9.60
2023-02-15T07:34:08.603Z,9.43
2023-02-15T07:36:36.845Z,9.27
2023-02-15T07:39:06.422Z,9.30
2023-02-15T07:41:34.817Z,9.47
2023-02-15T07:44:03.077Z,9.60
2023-02-15T07:46:31.344Z,9.37
2023-02-15T07:48:59.617Z,10.03
2023-02-15T07:51:27.763Z,8.90
2023-02-15T07:53:56.280Z,8.87
2023-02-15T07:56:25.808Z,9.63
2023-02-15T07:58:54.898Z,9.07
2023-02-15T08:01:25.863Z,8.60
2023-02-15T08:03:55.374Z,8.70
2023-02-15T08:06:25.438Z,8.57
2023-02-15T08:08:54.037Z,8.70
2023-02-15T08:11:30.085Z,9.03
2023-02-15T08:14:00.994Z,9.20
2023-02-15T08:16:33.220Z,9.27
2023-02-15T08:19:04.035Z,9.83
2023-02-15T08:21:33.292Z,8.47
2023-02-15T08:24:01.597Z,8.73
2023-02-15T08:26:32.585Z,9.27
2023-02-15T08:29:01.586Z,8.63
2023-02-15T08:31:30.074Z,9.50
2023-02-15T08:33:59.389Z,9.53
2023-02-15T08:36:33.087Z,9.37
2023-02-15T08:39:03.762Z,9.00
2023-02-15T08:41:36.519Z,8.70
2023-02-15T08:44:08.028Z,8.77
2023-02-15T08:46:39.051Z,9.17
2023-02-15T08:49:07.866Z,9.53
2023-02-15T08:51:39.237Z,9.73
2023-02-15T08:54:09.883Z,8.97
2023-02-15T08:56:41.594Z,9.07
2023-02-15T08:59:16.128Z,9.33
2023-02-15T09:01:44.622Z,9.07
2023-02-15T09:04:14.143Z,9.23
2023-02-15T09:06:44.112Z,9.03
2023-02-15T09:09:13.618Z,9.50
2023-02-15T09:11:45.779Z,9.23
2023-02-15T09:14:16.530Z,8.77
2023-02-15T09:16:49.583Z,8.60
2023-02-15T09:19:18.347Z,9.80
2023-02-15T09:21:46.823Z,9.10
2023-02-15T09:24:17.429Z,8.90
2023-02-15T09:26:48.669Z,8.67
2023-02-15T09:29:19.309Z,9.30
2023-02-15T09:31:49.914Z,9.00
2023-02-15T09:34:21.168Z,8.20
2023-02-15T09:36:49.870Z,9.03
2023-02-15T09:39:20.269Z,9.20
2023-02-15T09:42:38.254Z,8.97
2023-02-15T09:45:19.995Z,8.63
2023-02-15T09:48:21.129Z,9.07
2023-02-15T09:51:04.318Z,8.60
2023-02-15T09:53:56.025Z,8.67
2023-02-15T09:56:37.878Z,8.80
2023-02-15T09:59:16.199Z,8.83
2023-02-15T10:01:57.753Z,8.40
2023-02-15T10:04:48.599Z,9.53
2023-02-15T10:07:37.365Z,9.83
2023-02-15T10:10:18.813Z,8.90
2023-02-15T10:13:02.081Z,8.77
2023-02-15T10:15:52.987Z,9.90
2023-02-15T10:18:43.855Z,9.07
2023-02-15T10:21:26.955Z,9.70
2023-02-15T10:24:25.621Z,9.47
2023-02-15T10:26:58.580Z,9.30
2023-02-15T10:29:37.309Z,9.40
2023-02-15T10:32:22.876Z,8.40
2023-02-15T10:34:56.693Z,8.67
2023-02-15T10:37:54.527Z,9.33
2023-02-15T10:40:32.005Z,8.80
2023-02-15T10:43:18.444Z,8.83
2023-02-15T10:45:59.512Z,9.43
2023-02-15T10:48:52.244Z,9.43
2023-02-15T10:51:37.026Z,9.60
2023-02-15T10:54:20.733Z,9.33
2023-02-15T10:57:03.384Z,9.30
2023-02-15T10:59:54.357Z,9.50
2023-02-15T11:03:02.035Z,9.20
2023-02-15T11:05:43.531Z,9.07
2023-02-15T11:08:13.826Z,8.93
2023-02-15T11:10:46.378Z,9.40
2023-02-15T11:13:18.453Z,9.67
2023-02-15T11:15:53.774Z,8.90
2023-02-15T11:18:28.459Z,8.53
2023-02-15T11:21:03.419Z,8.80
2023-02-15T11:23:34.418Z,8.37
2023-02-15T11:26:06.719Z,9.00
2023-02-15T11:28:40.131Z,8.67
2023-02-15T11:31:19.541Z,8.87
2023-02-15T11:33:52.964Z,8.73
2023-02-15T11:36:27.463Z,9.03
2023-02-15T11:39:03.227Z,8.83
2023-02-15T11:41:39.891Z,8.47
2023-02-15T11:44:14.427Z,9.27
2023-02-15T11:46:42.706Z,7.80
2023-02-15T11:49:24.633Z,9.00
2023-02-15T11:51:55.337Z,8.90
2023-02-15T11:54:30.236Z,7.90
2023-02-15T11:57:03.746Z,8.23
2023-02-15T11:59:38.603Z,8.90
2023-02-15T12:02:20.065Z,8.80
2023-02-15T12:04:54.304Z,8.63
2023-02-15T12:07:28.525Z,8.77
2023-02-15T12:10:08.021Z,8.10
2023-02-15T12:12:37.896Z,8.73
2023-02-15T12:15:09.036Z,8.37
2023-02-15T12:17:41.368Z,8.47
2023-02-15T12:20:27.001Z,8.57
2023-02-15T12:23:03.287Z,7.87
2023-02-15T12:25:38.904Z,9.37
2023-02-15T12:28:29.171Z,9.40
2023-02-15T12:30:58.534Z,9.30
2023-02-15T12:33:32.303Z,8.97
2023-02-15T12:36:04.526Z,8.23
2023-02-15T12:38:39.126Z,8.67
2023-02-15T12:41:24.936Z,8.27
2023-02-15T12:44:14.365Z,9.00
2023-02-15T12:46:42.894Z,8.27
2023-02-15T12:49:20.996Z,8.57
2023-02-15T12:51:53.599Z,8.60
2023-02-15T12:54:41.067Z,8.30
2023-02-15T12:57:23.948Z,8.00
2023-02-15T12:59:54.628Z,8.40
2023-02-15T13:05:37.743Z,8.33
2023-02-15T13:08:16.704Z,8.23
2023-02-15T13:10:58.638Z,8.00
2023-02-15T13:13:30.372Z,7.87
2023-02-15T13:16:03.903Z,7.70
2023-02-15T13:18:35.737Z,7.28
2023-02-15T13:21:21.334Z,7.80
2023-02-15T13:23:54.443Z,7.85
2023-02-15T13:26:27.174Z,8.02
2023-02-15T13:28:58.686Z,7.20
2023-02-15T13:31:33.259Z,7.72
2023-02-15T13:34:11.783Z,7.63
2023-02-15T13:36:51.534Z,7.15
2023-02-15T13:39:29.370Z,7.97
2023-02-15T13:42:08.132Z,7.95
2023-02-15T13:45:02.126Z,7.75
2023-02-15T13:47:43.461Z,8.25
2023-02-15T13:50:33.892Z,7.88
2023-02-15T13:53:36.464Z,7.68
2023-02-15T13:56:14.470Z,8.18
2023-02-15T13:59:22.274Z,7.95
2023-02-15T14:02:00.200Z,7.75
2023-02-15T14:04:51.978Z,8.65
2023-02-15T14:07:35.716Z,8.05
2023-02-15T14:10:26.372Z,8.15
2023-02-15T14:13:16.886Z,7.15
2023-02-15T14:15:51.619Z,8.07
2023-02-15T14:18:27.807Z,7.70
2023-02-15T14:21:08.550Z,7.53
2023-02-15T14:23:50.087Z,7.85
2023-02-15T14:26:28.986Z,8.25
2023-02-15T14:29:09.872Z,8.75
2023-02-15T14:31:44.085Z,8.07
2023-02-15T14:34:24.263Z,8.68
2023-02-15T14:36:54.324Z,8.40
2023-02-15T14:39:54.335Z,8.10
2023-02-15T14:42:27.803Z,8.32
2023-02-15T14:45:03.829Z,8.00
2023-02-15T14:47:38.863Z,8.32
2023-02-15T14:50:47.609Z,7.88
2023-02-15T14:53:39.226Z,8.95
2023-02-15T14:56:25.261Z,8.45
2023-02-15T14:59:17.234Z,8.45
2023-02-15T15:01:59.396Z,8.35
2023-02-15T15:04:38.265Z,8.43
2023-02-15T15:07:17.030Z,8.95
2023-02-15T15:09:47.869Z,8.75
2023-02-15T15:12:39.494Z,8.48
2023-02-15T15:15:09.939Z,7.70
2023-02-15T15:18:05.184Z,8.82
2023-02-15T15:20:48.628Z,9.27
2023-02-15T15:23:45.441Z,8.90
2023-02-15T15:26:37.824Z,8.50
2023-02-15T15:29:07.964Z,8.60
2023-02-15T15:31:50.542Z,8.25
2023-02-15T15:34:30.344Z,8.73
2023-02-15T15:37:54.425Z,8.73
2023-02-15T15:41:20.950Z,9.05
2023-02-15T15:44:29.430Z,8.25
2023-02-15T15:47:19.562Z,8.07
2023-02-15T15:49:48.437Z,8.70
2023-02-15T15:52:20.903Z,8.90
2023-02-15T15:54:55.043Z,8.82
2023-02-15T15:57:29.806Z,8.60
2023-02-15T16:00:00.712Z,8.45
2023-02-15T16:02:29.988Z,8.93
2023-02-15T16:05:10.173Z,9.27
2023-02-15T16:07:43.344Z,8.90
2023-02-15T16:10:24.397Z,8.98
2023-02-15T16:12:54.190Z,9.50
2023-02-15T16:15:26.133Z,9.00
2023-02-15T16:17:57.578Z,9.10
2023-02-15T16:20:29.125Z,10.40
2023-02-15T16:23:17.324Z,9.70
2023-02-15T16:25:56.517Z,9.63
2023-02-15T16:28:24.821Z,10.07
2023-02-15T16:31:08.392Z,9.93
2023-02-15T16:33:39.072Z,9.57
2023-02-15T16:36:12.645Z,10.13
2023-02-15T16:39:21.549Z,10.80
2023-02-15T16:41:50.375Z,10.70
2023-02-15T16:44:21.907Z,10.13
2023-02-15T16:46:54.855Z,10.00
2023-02-15T16:49:27.903Z,9.97
2023-02-15T16:51:59.746Z,10.60
2023-02-15T16:54:32.221Z,11.17
2023-02-15T16:57:00.883Z,11.40
2023-02-15T16:59:36.496Z,11.07
2023-02-15T17:02:08.054Z,11.10
2023-02-15T17:04:38.969Z,11.80
2023-02-15T17:07:19.092Z,11.30
2023-02-15T17:10:01.753Z,11.43
2023-02-15T17:12:47.804Z,11.97
2023-02-15T17:15:31.570Z,11.37
2023-02-15T17:18:05.730Z,11.10
2023-02-15T17:20:37.458Z,11.67
2023-02-15T17:23:06.619Z,10.23
2023-02-15T17:25:43.211Z,11.23
2023-02-15T17:28:19.854Z,10.83
2023-02-15T17:30:49.271Z,11.27
2023-02-15T17:33:29.761Z,10.50
2023-02-15T17:36:11.270Z,11.67
2023-02-15T17:38:40.561Z,10.93
2023-02-15T17:41:10.772Z,10.77
2023-02-15T17:43:38.987Z,10.93
2023-02-15T17:46:07.223Z,11.57
2023-02-15T17:48:37.834Z,11.47
2023-02-15T17:51:13.224Z,11.40
2023-02-15T17:53:41.880Z,10.27
2023-02-15T17:56:10.622Z,10.90
2023-02-15T17:58:39.819Z,10.30
2023-02-15T18:01:32.704Z,10.67
2023-02-15T18:04:18.869Z,10.50
2023-02-15T18:07:04.796Z,9.57
2023-02-15T18:09:50.736Z,9.40
2023-02-15T18:12:24.965Z,9.30
2023-02-15T18:14:54.274Z,9.53
2023-02-15T18:17:28.664Z,8.87
2023-02-15T18:19:57.253Z,10.17
2023-02-15T18:22:25.596Z,11.40
2023-02-15T18:24:53.778Z,9.67
2023-02-15T18:27:23.394Z,9.70
2023-02-15T18:29:51.824Z,9.67
2023-02-15T18:32:26.664Z,10.37
2023-02-15T18:34:58.636Z,21.53
2023-02-15T18:37:31.364Z,11.60
2023-02-15T18:40:00.704Z,8.97
2023-02-15T18:42:34.293Z,9.03
2023-02-15T18:45:13.110Z,8.83
2023-02-15T18:47:42.323Z,9.57
2023-02-15T18:50:11.032Z,10.93
2023-02-15T18:52:40.257Z,9.13
2023-02-15T18:55:18.854Z,9.00
2023-02-15T18:57:50.705Z,8.87
2023-02-15T19:00:22.176Z,8.70
2023-02-15T19:02:50.371Z,9.13
2023-02-15T19:08:19.788Z,8.50
2023-02-15T19:10:48.094Z,9.00
2023-02-15T19:13:18.083Z,8.27
2023-02-15T19:15:46.268Z,8.47
2023-02-15T19:18:14.443Z,8.80
2023-02-15T19:20:46.298Z,8.90
2023-02-15T19:23:20.010Z,9.13
2023-02-15T19:25:49.746Z,9.17
2023-02-15T19:28:26.286Z,8.37
2023-02-15T19:30:54.460Z,8.57
2023-02-15T19:33:23.731Z,9.27
2023-02-15T19:35:57.142Z,8.60
2023-02-15T19:38:29.652Z,7.47
2023-02-15T19:41:04.089Z,8.53
2023-02-15T19:43:33.660Z,7.83
2023-02-15T19:46:02.102Z,8.27
2023-02-15T19:48:30.499Z,8.80
2023-02-15T19:50:59.203Z,8.47
2023-02-15T19:53:29.425Z,9.30
2023-02-15T19:55:57.563Z,10.80
2023-02-15T19:58:25.686Z,9.10
2023-02-15T20:00:55.276Z,8.97
2023-02-15T20:03:23.533Z,9.50
2023-02-15T20:05:51.792Z,9.17
2023-02-15T20:08:23.254Z,8.73
2023-02-15T20:10:51.677Z,8.53
2023-02-15T20:13:21.385Z,8.70
2023-02-15T20:15:51.345Z,8.73
2023-02-15T20:18:22.605Z,8.00
2023-02-15T20:20:55.765Z,7.97
2023-02-15T20:23:29.044Z,8.13
2023-02-15T20:26:01.230Z,8.60
2023-02-15T20:28:32.572Z,8.00
2023-02-15T20:31:01.382Z,8.10
2023-02-15T20:33:31.050Z,8.67
2023-02-15T20:36:00.704Z,8.53
2023-02-15T20:38:31.320Z,7.87
2023-02-15T20:41:18.680Z,7.87
2023-02-15T20:43:47.200Z,7.80
2023-02-15T20:46:15.404Z,8.40
2023-02-15T20:48:45.098Z,8.33
2023-02-15T20:51:18.680Z,8.50
2023-02-15T20:53:48.386Z,7.97
2023-02-15T20:56:21.341Z,8.80
2023-02-15T20:58:50.422Z,9.40
2023-02-15T21:01:20.148Z,9.40
2023-02-15T21:03:51.284Z,8.77
2023-02-15T21:06:24.792Z,8.47
2023-02-15T21:08:53.120Z,8.83
2023-02-15T21:11:23.659Z,8.33
2023-02-15T21:13:52.250Z,8.23
2023-02-15T21:16:20.782Z,8.30
2023-02-15T21:18:53.641Z,8.43
2023-02-15T21:21:24.648Z,8.50
2023-02-15T21:23:54.214Z,8.70
2023-02-15T21:26:24.117Z,8.13
2023-02-15T21:28:52.377Z,8.03
2023-02-15T21:31:23.815Z,7.70
2023-02-15T21:33:53.500Z,7.27
2023-02-15T21:36:26.830Z,7.13
2023-02-15T21:38:55.283Z,7.60
2023-02-15T21:41:43.118Z,7.50
2023-02-15T21:44:36.270Z,8.27
2023-02-15T21:47:22.876Z,7.57
2023-02-15T21:49:52.956Z,8.60
2023-02-15T21:52:23.981Z,7.97
2023-02-15T21:54:52.179Z,7.87
2023-02-15T21:57:22.294Z,7.93
2023-02-15T21:59:50.699Z,7.67
2023-02-15T22:02:29.731Z,7.83
2023-02-15T22:05:00.188Z,8.10
2023-02-15T22:07:28.377Z,7.97
2023-02-15T22:09:56.566Z,8.10
2023-02-15T22:12:24.755Z,7.70
2023-02-15T22:14:54.696Z,8.13
2023-02-15T22:17:26.755Z,7.80
2023-02-15T22:19:54.995Z,8.63
2023-02-15T22:22:26.042Z,8.73
2023-02-15T22:24:54.387Z,8.03
2023-02-15T22:27:26.560Z,7.80
2023-02-15T22:29:56.089Z,7.97
2023-02-15T22:32:27.265Z,8.03
2023-02-15T22:34:56.100Z,8.27
2023-02-15T22:37:25.603Z,8.57
2023-02-15T22:39:54.083Z,7.17
2023-02-15T22:42:27.207Z,7.73
2023-02-15T22:44:57.651Z,8.40
2023-02-15T22:47:28.195Z,8.30
2023-02-15T22:49:56.907Z,8.53
2023-02-15T22:52:27.139Z,8.30
2023-02-15T22:54:55.762Z,8.47
2023-02-15T22:57:30.365Z,8.17
2023-02-15T22:59:59.414Z,8.73
2023-02-15T23:02:54.044Z,8.80
2023-02-15T23:05:30.423Z,7.43
2023-02-15T23:08:00.740Z,7.90
2023-02-15T23:10:31.341Z,7.27
2023-02-15T23:13:27.315Z,7.67
2023-02-15T23:16:01.051Z,8.23
2023-02-15T23:18:33.280Z,7.73
2023-02-15T23:21:05.531Z,7.00
2023-02-15T23:23:38.826Z,7.87
2023-02-15T23:26:17.396Z,7.90
2023-02-15T23:28:46.140Z,8.67
2023-02-15T23:31:19.632Z,8.53
2023-02-15T23:33:48.624Z,8.30
2023-02-15T23:36:28.833Z,8.33
2023-02-15T23:39:23.458Z,8.83
2023-02-15T23:41:51.551Z,9.60
2023-02-15T23:44:20.664Z,9.97
2023-02-15T23:46:50.853Z,9.73
2023-02-15T23:49:20.649Z,11.07
2023-02-15T23:51:52.101Z,9.23
2023-02-15T23:54:26.710Z,9.73
2023-02-15T23:57:00.886Z,9.90
2023-02-15T23:59:32.187Z,9.73
